Time;durP1;ratioP1;P1;durP2;ratioP2;P2;SDS_P1;SDS_P2;PMS_P1;PMS_P2;Temp;Humidity;BMP_temperature;BMP_pressure;BME280_temperature;BME280_humidity;BME280_pressure;Samples;Min_cycle;Max_cycle;Signal;HPM_P1;HPM_P2
2023/01/22 00:01:11;;;;;;;24.33;14.90;;;2.30;99.90;;;;;;5018344;28;20496;-79
2023/01/22 00:03:38;;;;;;;23.50;13.77;;;2.10;99.90;;;;;;5040236;28;20987;-79
2023/01/22 00:06:04;;;;;;;20.23;14.50;;;2.20;99.90;;;;;;5034023;28;20433;-77
2023/01/22 00:08:30;;;;;;;20.90;15.27;;;2.10;99.90;;;;;;5036612;28;20453;-78
2023/01/22 00:10:57;;;;;;;20.97;13.90;;;2.40;99.90;;;;;;5050853;28;20420;-79
2023/01/22 00:13:24;;;;;;;20.77;14.63;;;2.30;99.90;;;;;;5044861;28;20543;-79
2023/01/22 00:15:49;;;;;;;19.90;14.40;;;2.30;99.90;;;;;;5019609;28;20423;-79
2023/01/22 00:18:16;;;;;;;23.30;14.20;;;2.10;99.90;;;;;;5039358;28;20426;-78
2023/01/22 00:20:47;;;;;;;19.77;14.17;;;2.10;99.90;;;;;;5044979;28;20559;-79
2023/01/22 00:23:13;;;;;;;23.43;15.30;;;2.30;99.90;;;;;;5020017;28;20450;-79
2023/01/22 00:25:39;;;;;;;19.20;14.50;;;2.30;99.90;;;;;;5030220;28;20737;-77
2023/01/22 00:28:05;;;;;;;23.37;14.67;;;2.20;99.90;;;;;;5012771;28;20278;-79
2023/01/22 00:30:30;;;;;;;21.97;15.10;;;2.10;99.90;;;;;;5040830;28;20489;-78
2023/01/22 00:32:56;;;;;;;22.30;15.13;;;2.30;99.90;;;;;;5035613;28;20453;-79
2023/01/22 00:35:22;;;;;;;24.13;15.33;;;2.40;99.90;;;;;;5027457;28;20236;-78
2023/01/22 00:37:48;;;;;;;23.00;15.20;;;1.90;99.90;;;;;;5027892;28;20691;-78
2023/01/22 00:40:14;;;;;;;25.00;16.20;;;2.00;99.90;;;;;;5004112;28;20560;-77
2023/01/22 00:42:40;;;;;;;25.20;16.27;;;2.30;99.90;;;;;;5044502;28;20210;-78
2023/01/22 00:45:06;;;;;;;18.87;13.90;;;2.10;99.90;;;;;;5021471;28;20428;-78
2023/01/22 00:47:32;;;;;;;23.17;14.80;;;2.30;99.90;;;;;;5045860;28;20178;-77
2023/01/22 00:49:58;;;;;;;23.53;16.60;;;2.30;99.90;;;;;;5003509;28;20421;-78
2023/01/22 00:52:24;;;;;;;22.17;15.23;;;2.20;99.90;;;;;;5042057;28;20182;-79
2023/01/22 00:54:49;;;;;;;22.30;15.20;;;2.40;99.90;;;;;;4987291;28;20442;-77
2023/01/22 00:57:20;;;;;;;23.07;15.80;;;2.40;99.90;;;;;;5009880;28;20194;-79
2023/01/22 00:59:48;;;;;;;28.23;17.23;;;2.40;99.90;;;;;;5025356;28;20212;-76
2023/01/22 01:02:14;;;;;;;23.43;15.20;;;2.10;99.90;;;;;;5029244;28;20966;-75
2023/01/22 01:04:40;;;;;;;24.37;15.40;;;2.30;99.90;;;;;;5026587;28;20391;-78
2023/01/22 01:07:06;;;;;;;21.50;14.30;;;2.20;99.90;;;;;;5025962;28;20418;-78
2023/01/22 01:09:32;;;;;;;22.60;15.20;;;2.30;99.90;;;;;;4996817;28;20467;-76
2023/01/22 01:11:59;;;;;;;21.20;13.53;;;2.40;99.90;;;;;;5000095;28;20428;-79
2023/01/22 01:14:25;;;;;;;21.80;13.97;;;2.30;99.90;;;;;;5024124;28;20226;-76
2023/01/22 01:16:51;;;;;;;20.47;13.30;;;2.50;99.90;;;;;;5046348;28;20428;-77
2023/01/22 01:19:19;;;;;;;23.50;14.93;;;2.40;99.90;;;;;;5012371;28;20418;-77
2023/01/22 01:21:45;;;;;;;21.20;14.60;;;2.30;99.90;;;;;;5013186;28;20221;-77
2023/01/22 01:24:11;;;;;;;19.03;14.17;;;2.40;99.90;;;;;;5014162;28;20847;-76
2023/01/22 01:26:38;;;;;;;22.17;13.77;;;2.40;99.90;;;;;;5013028;28;20411;-77
2023/01/22 01:29:06;;;;;;;22.97;16.70;;;2.30;99.90;;;;;;5014308;28;20182;-77
2023/01/22 01:31:32;;;;;;;22.57;15.57;;;2.20;99.90;;;;;;4998591;28;20489;-79
2023/01/22 01:33:58;;;;;;;21.90;14.70;;;2.30;99.90;;;;;;5023271;28;20428;-79
2023/01/22 01:36:24;;;;;;;21.23;14.30;;;2.30;99.90;;;;;;5018326;28;20922;-78
2023/01/22 01:38:50;;;;;;;21.60;15.03;;;2.40;99.90;;;;;;5033161;28;20695;-79
2023/01/22 01:41:19;;;;;;;22.97;14.87;;;2.20;99.90;;;;;;5015582;28;20463;-78
2023/01/22 01:43:46;;;;;;;22.87;15.53;;;2.40;99.90;;;;;;5015250;28;20496;-79
2023/01/22 01:46:23;;;;;;;19.00;13.57;;;2.30;99.90;;;;;;5033196;28;20422;-78
2023/01/22 01:48:54;;;;;;;23.00;14.77;;;2.20;99.90;;;;;;5025784;28;20416;-78
2023/01/22 01:51:34;;;;;;;21.50;13.73;;;2.00;99.90;;;;;;5015203;28;20417;-78
2023/01/22 01:54:03;;;;;;;22.40;14.30;;;2.10;99.90;;;;;;4999154;28;20445;-79
2023/01/22 01:56:40;;;;;;;20.53;13.63;;;2.00;99.90;;;;;;5015358;28;20432;-77
2023/01/22 01:59:09;;;;;;;19.93;13.93;;;1.90;99.90;;;;;;5015183;28;20763;-79
2023/01/22 02:01:35;;;;;;;22.00;14.60;;;2.00;99.90;;;;;;5001518;28;20455;-77
2023/01/22 02:04:01;;;;;;;23.10;15.77;;;1.80;99.90;;;;;;5029536;28;20782;-79
2023/01/22 02:06:27;;;;;;;20.80;14.87;;;1.80;99.90;;;;;;5035428;28;20458;-79
2023/01/22 02:08:54;;;;;;;20.93;14.80;;;2.10;99.90;;;;;;5035061;28;20397;-78
2023/01/22 02:11:21;;;;;;;21.17;15.23;;;2.00;99.90;;;;;;5019077;28;20947;-79
2023/01/22 02:13:59;;;;;;;19.00;13.27;;;2.10;99.90;;;;;;5052901;28;20464;-75
2023/01/22 02:16:24;;;;;;;16.87;12.40;;;2.00;99.90;;;;;;5052691;28;20408;-78
2023/01/22 02:18:50;;;;;;;18.60;13.20;;;2.20;99.90;;;;;;5007918;28;20412;-78
2023/01/22 02:21:29;;;;;;;18.30;13.77;;;2.10;99.90;;;;;;5014204;28;20210;-78
2023/01/22 02:23:55;;;;;;;20.60;14.27;;;2.00;99.90;;;;;;5033978;28;20190;-78
2023/01/22 02:26:20;;;;;;;17.23;13.40;;;2.20;99.90;;;;;;5030262;28;20444;-79
2023/01/22 02:28:46;;;;;;;20.90;14.30;;;2.20;99.90;;;;;;5014527;28;20260;-78
2023/01/22 02:31:12;;;;;;;18.53;12.90;;;2.20;99.90;;;;;;5014889;28;20178;-78
2023/01/22 02:33:37;;;;;;;18.70;13.63;;;2.20;99.90;;;;;;5032575;28;20199;-77
2023/01/22 02:36:03;;;;;;;19.57;13.73;;;2.10;99.90;;;;;;5033064;28;20179;-78
2023/01/22 02:38:29;;;;;;;19.00;13.37;;;2.20;99.90;;;;;;5032140;28;20189;-78
2023/01/22 02:40:54;;;;;;;20.93;13.47;;;2.10;99.90;;;;;;5032544;28;20457;-78
2023/01/22 02:43:20;;;;;;;20.67;14.73;;;2.00;99.90;;;;;;4998497;28;20635;-78
2023/01/22 02:45:46;;;;;;;18.37;13.73;;;2.00;99.90;;;;;;5032842;28;20171;-76
2023/01/22 02:48:12;;;;;;;19.47;13.50;;;2.40;99.90;;;;;;4998606;28;20180;-78
2023/01/22 02:50:37;;;;;;;17.47;12.30;;;2.10;99.90;;;;;;5015153;28;20264;-79
2023/01/22 02:53:03;;;;;;;19.60;13.10;;;2.30;99.90;;;;;;5032614;28;20927;-79
2023/01/22 02:55:29;;;;;;;18.50;12.67;;;2.20;99.90;;;;;;4998444;28;20193;-79
2023/01/22 02:57:55;;;;;;;16.07;12.13;;;2.30;99.90;;;;;;4998594;28;20183;-78
2023/01/22 03:00:20;;;;;;;18.73;13.50;;;2.00;99.90;;;;;;5031517;28;20514;-76
2023/01/22 03:02:46;;;;;;;19.93;13.10;;;2.20;99.90;;;;;;5020161;28;20202;-76
2023/01/22 03:05:12;;;;;;;18.83;13.93;;;2.40;99.90;;;;;;5032956;28;20264;-79
2023/01/22 03:07:46;;;;;;;17.40;12.60;;;2.30;99.90;;;;;;5052627;28;20196;-78
2023/01/22 03:10:18;;;;;;;17.13;12.37;;;2.30;99.90;;;;;;5054302;28;20173;-78
2023/01/22 03:21:18;;;;;;;18.73;12.83;;;2.30;99.90;;;;;;5034355;28;20463;-78
2023/01/22 03:23:53;;;;;;;16.50;12.70;;;2.00;99.90;;;;;;5030236;28;20793;-77
2023/01/22 03:26:20;;;;;;;17.43;12.93;;;2.30;99.90;;;;;;5039185;28;20409;-78
2023/01/22 03:28:46;;;;;;;17.73;12.40;;;2.40;99.90;;;;;;5038278;28;20760;-77
2023/01/22 03:31:13;;;;;;;21.33;13.43;;;2.00;99.90;;;;;;5052077;28;20406;-76
2023/01/22 03:33:39;;;;;;;16.97;12.10;;;2.10;99.90;;;;;;5054274;28;20436;-78
2023/01/22 03:36:07;;;;;;;16.60;11.83;;;1.80;99.90;;;;;;5036627;28;20930;-77
2023/01/22 03:38:33;;;;;;;16.23;11.90;;;1.90;99.90;;;;;;5018774;28;20420;-79
2023/01/22 03:41:10;;;;;;;16.70;12.23;;;1.80;99.90;;;;;;5050436;28;20557;-79
2023/01/22 03:43:35;;;;;;;18.43;12.20;;;2.10;99.90;;;;;;5020268;28;20438;-79
2023/01/22 03:46:20;;;;;;;17.60;12.40;;;1.90;99.90;;;;;;5038292;28;20477;-79
2023/01/22 03:48:49;;;;;;;19.13;13.37;;;2.00;99.90;;;;;;5037443;28;20199;-79
2023/01/22 03:51:16;;;;;;;15.00;11.70;;;1.90;99.90;;;;;;5055245;28;20412;-79
2023/01/22 03:53:43;;;;;;;19.30;13.23;;;2.00;99.90;;;;;;5054587;28;20534;-79
2023/01/22 03:56:14;;;;;;;17.47;12.70;;;1.70;99.90;;;;;;5055441;28;20427;-78
2023/01/22 03:58:40;;;;;;;15.90;12.20;;;1.70;99.90;;;;;;5054605;28;20420;-79
2023/01/22 04:01:09;;;;;;;18.70;12.10;;;1.70;99.90;;;;;;5047926;28;20469;-78
2023/01/22 04:03:35;;;;;;;17.27;12.67;;;1.70;99.90;;;;;;5020256;28;20845;-79
2023/01/22 04:06:01;;;;;;;17.90;12.50;;;1.90;99.90;;;;;;5036910;28;20416;-75
2023/01/22 04:08:29;;;;;;;23.00;14.00;;;2.00;99.90;;;;;;5054950;28;20412;-77
2023/01/22 04:10:56;;;;;;;18.17;12.43;;;1.90;99.90;;;;;;5037327;28;20530;-78
2023/01/22 04:13:23;;;;;;;19.17;13.70;;;1.90;99.90;;;;;;5054442;28;20519;-79
2023/01/22 04:15:49;;;;;;;17.00;12.27;;;2.00;99.90;;;;;;5036117;28;20417;-76
2023/01/22 04:18:16;;;;;;;20.60;13.37;;;2.10;99.90;;;;;;5030678;28;20976;-76
2023/01/22 04:20:41;;;;;;;15.70;12.10;;;2.20;99.90;;;;;;4999453;28;20484;-77
2023/01/22 04:23:07;;;;;;;18.40;13.00;;;1.90;99.90;;;;;;5016264;28;20797;-79
2023/01/22 04:25:33;;;;;;;17.03;12.80;;;2.10;99.90;;;;;;5034276;28;20257;-79
2023/01/22 04:27:59;;;;;;;18.20;13.47;;;2.00;99.90;;;;;;5023696;28;20460;-79
2023/01/22 04:30:25;;;;;;;18.20;13.10;;;2.20;99.90;;;;;;5033897;28;20454;-79
2023/01/22 04:32:50;;;;;;;18.27;13.30;;;2.00;99.90;;;;;;5034497;28;20195;-79
2023/01/22 04:35:16;;;;;;;19.37;14.27;;;2.00;99.90;;;;;;5034343;28;20257;-76
2023/01/22 04:37:42;;;;;;;15.50;12.70;;;1.90;99.90;;;;;;5016248;28;20649;-76
2023/01/22 04:40:08;;;;;;;18.10;13.57;;;2.00;99.90;;;;;;5009954;28;20199;-79
2023/01/22 04:42:34;;;;;;;17.00;12.80;;;1.80;99.90;;;;;;5016260;28;20679;-75
2023/01/22 04:45:00;;;;;;;18.70;14.30;;;1.90;99.90;;;;;;5032668;28;20471;-77
2023/01/22 04:47:25;;;;;;;18.83;13.43;;;1.90;99.90;;;;;;5013069;28;20256;-77
2023/01/22 04:49:51;;;;;;;20.00;13.80;;;1.90;99.90;;;;;;5030114;28;20203;-77
2023/01/22 04:52:17;;;;;;;17.13;12.50;;;1.90;99.90;;;;;;5006333;28;20184;-78
2023/01/22 04:54:43;;;;;;;19.40;13.80;;;1.90;99.90;;;;;;5050106;28;20178;-77
2023/01/22 04:57:09;;;;;;;16.47;13.00;;;2.20;99.90;;;;;;5050255;28;20416;-77
2023/01/22 04:59:35;;;;;;;15.90;12.17;;;2.10;99.90;;;;;;5049894;28;20259;-77
2023/01/22 05:02:01;;;;;;;16.63;12.43;;;2.00;99.90;;;;;;5050321;28;20416;-77
2023/01/22 05:04:26;;;;;;;20.90;13.87;;;1.70;99.90;;;;;;5049802;28;20208;-77
2023/01/22 05:06:53;;;;;;;18.63;14.43;;;2.00;99.90;;;;;;5050172;28;20405;-78
2023/01/22 05:09:18;;;;;;;15.90;12.07;;;1.70;99.90;;;;;;5050033;28;20178;-77
2023/01/22 05:11:44;;;;;;;17.30;12.60;;;1.70;99.90;;;;;;5050185;28;20416;-77
2023/01/22 05:14:10;;;;;;;16.70;12.93;;;1.80;99.90;;;;;;5031010;28;20280;-77
2023/01/22 05:16:35;;;;;;;19.20;13.70;;;1.90;99.90;;;;;;5050208;28;20225;-77
2023/01/22 05:19:01;;;;;;;19.67;12.83;;;2.00;99.90;;;;;;5030371;28;20186;-77
2023/01/22 05:21:27;;;;;;;18.00;13.07;;;1.70;99.90;;;;;;5027187;28;20726;-77
2023/01/22 05:23:52;;;;;;;15.87;12.50;;;1.80;99.90;;;;;;5029660;28;20199;-78
2023/01/22 05:26:18;;;;;;;17.37;12.63;;;1.60;99.90;;;;;;5030108;28;20183;-77
2023/01/22 05:28:43;;;;;;;18.40;13.57;;;1.60;99.90;;;;;;5029520;28;20183;-77
2023/01/22 05:31:12;;;;;;;20.23;14.20;;;1.40;99.90;;;;;;5029852;28;20863;-77
2023/01/22 05:33:39;;;;;;;19.43;13.13;;;1.70;99.90;;;;;;5029342;28;20213;-77
2023/01/22 05:36:06;;;;;;;21.27;14.50;;;1.40;99.90;;;;;;5012448;28;20417;-77
2023/01/22 05:38:31;;;;;;;18.57;12.73;;;1.50;99.90;;;;;;5011924;28;20408;-77
2023/01/22 05:40:57;;;;;;;18.87;14.73;;;1.70;99.90;;;;;;5011589;28;20476;-77
2023/01/22 05:43:23;;;;;;;20.93;12.73;;;1.50;99.90;;;;;;5049685;28;20259;-77
2023/01/22 05:45:49;;;;;;;18.90;13.67;;;1.60;99.90;;;;;;5049896;28;20408;-78
2023/01/22 05:48:14;;;;;;;18.90;13.50;;;1.50;99.90;;;;;;5049450;28;20166;-78
2023/01/22 05:50:40;;;;;;;17.40;12.30;;;1.50;99.90;;;;;;5049337;28;20539;-77
2023/01/22 05:53:06;;;;;;;16.77;12.47;;;1.50;99.90;;;;;;5017813;28;21002;-77
2023/01/22 05:55:33;;;;;;;18.80;14.00;;;1.60;99.90;;;;;;5040808;28;20410;-77
2023/01/22 05:57:59;;;;;;;18.27;12.97;;;1.70;99.90;;;;;;5011734;28;20429;-77
2023/01/22 06:00:25;;;;;;;19.40;13.50;;;1.70;99.90;;;;;;5011399;28;20471;-77
2023/01/22 06:02:57;;;;;;;17.70;12.10;;;1.90;99.90;;;;;;5034684;28;20206;-77
2023/01/22 06:05:23;;;;;;;16.47;12.03;;;1.70;99.90;;;;;;5048908;28;20753;-77
2023/01/22 06:07:49;;;;;;;15.90;11.63;;;1.60;99.90;;;;;;5049225;28;20420;-77
2023/01/22 06:10:15;;;;;;;17.40;13.00;;;1.60;99.90;;;;;;5002621;28;20245;-77
2023/01/22 06:12:41;;;;;;;15.67;11.73;;;1.60;99.90;;;;;;5016892;28;20225;-77
2023/01/22 06:15:07;;;;;;;16.90;12.70;;;1.60;99.90;;;;;;5028210;28;20499;-77
2023/01/22 06:17:33;;;;;;;16.10;12.00;;;1.80;99.90;;;;;;5029330;28;20656;-77
2023/01/22 06:19:58;;;;;;;15.80;11.53;;;1.70;99.90;;;;;;5029050;28;20484;-77
2023/01/22 06:22:24;;;;;;;14.97;11.37;;;1.80;99.90;;;;;;5029468;28;20179;-77
2023/01/22 06:24:49;;;;;;;15.90;11.83;;;1.90;99.90;;;;;;5011262;28;20182;-77
2023/01/22 06:27:15;;;;;;;17.20;12.70;;;1.70;99.90;;;;;;4995496;28;20917;-77
2023/01/22 06:29:41;;;;;;;16.33;12.20;;;1.80;99.90;;;;;;5028967;28;20186;-77
2023/01/22 06:32:06;;;;;;;15.90;12.30;;;1.90;99.90;;;;;;5029659;28;20280;-77
2023/01/22 06:34:32;;;;;;;17.27;11.67;;;1.60;99.90;;;;;;5022705;28;20547;-77
2023/01/22 06:36:58;;;;;;;17.10;12.83;;;1.80;99.90;;;;;;5048838;28;20507;-77
2023/01/22 06:39:23;;;;;;;16.63;11.70;;;1.70;99.90;;;;;;5036314;28;20182;-77
2023/01/22 06:41:49;;;;;;;16.47;12.03;;;1.80;99.90;;;;;;5029133;28;20194;-77
2023/01/22 06:44:15;;;;;;;16.77;11.80;;;1.60;99.90;;;;;;5011187;28;20597;-77
2023/01/22 06:46:40;;;;;;;15.70;11.60;;;1.80;99.90;;;;;;5032847;28;20188;-77
2023/01/22 06:49:09;;;;;;;14.90;12.03;;;1.70;99.90;;;;;;5014846;28;20917;-77
2023/01/22 06:51:34;;;;;;;15.33;11.23;;;1.50;99.90;;;;;;5036820;28;20281;-78
2023/01/22 06:54:00;;;;;;;16.67;12.00;;;1.80;99.90;;;;;;5052122;28;20539;-77
2023/01/22 06:56:27;;;;;;;16.63;10.97;;;1.90;99.90;;;;;;5034719;28;20546;-77
2023/01/22 06:58:52;;;;;;;13.33;10.87;;;1.90;99.90;;;;;;5018171;28;20205;-77
2023/01/22 07:01:18;;;;;;;15.53;10.00;;;1.90;99.90;;;;;;5052303;28;20448;-77
2023/01/22 07:03:44;;;;;;;12.70;9.50;;;2.10;99.90;;;;;;5052197;28;20221;-77
2023/01/22 07:06:10;;;;;;;11.57;10.00;;;2.00;99.90;;;;;;5052557;28;20174;-77
2023/01/22 07:08:36;;;;;;;16.47;11.37;;;2.00;99.90;;;;;;5034388;28;20404;-77
2023/01/22 07:11:02;;;;;;;13.23;10.60;;;2.00;99.90;;;;;;5052151;28;20867;-77
2023/01/22 07:13:28;;;;;;;14.83;11.37;;;2.00;99.90;;;;;;5041148;28;20452;-77
2023/01/22 07:15:54;;;;;;;17.00;12.30;;;1.70;99.90;;;;;;5043251;28;20781;-77
2023/01/22 07:18:22;;;;;;;16.87;12.33;;;1.80;99.90;;;;;;5052152;28;20177;-77
2023/01/22 07:20:48;;;;;;;16.43;11.90;;;1.80;99.90;;;;;;5051960;28;20198;-77
2023/01/22 07:23:14;;;;;;;15.83;10.90;;;1.70;99.90;;;;;;5034362;28;20433;-77
2023/01/22 07:25:40;;;;;;;14.50;11.30;;;1.80;99.90;;;;;;5051771;28;20534;-77
2023/01/22 07:28:06;;;;;;;19.10;12.00;;;1.70;99.90;;;;;;5051987;28;20491;-77
2023/01/22 07:30:32;;;;;;;14.40;10.40;;;2.00;99.90;;;;;;5033938;28;20261;-77
2023/01/22 07:32:59;;;;;;;14.53;11.40;;;1.80;99.90;;;;;;5034248;28;20551;-77
2023/01/22 07:35:25;;;;;;;13.87;10.80;;;1.70;99.90;;;;;;5051608;28;20442;-77
2023/01/22 07:37:55;;;;;;;16.40;11.47;;;1.80;99.90;;;;;;5017649;28;20933;-77
2023/01/22 07:40:23;;;;;;;13.90;11.20;;;1.80;99.90;;;;;;5011239;28;20964;-77
2023/01/22 07:42:49;;;;;;;15.87;11.87;;;1.80;99.90;;;;;;5040861;28;20464;-77
2023/01/22 07:45:14;;;;;;;16.23;11.50;;;1.80;99.90;;;;;;5029701;28;20516;-77
2023/01/22 07:47:40;;;;;;;15.80;11.40;;;2.00;99.90;;;;;;5031500;28;20500;-76
2023/01/22 07:50:06;;;;;;;14.50;11.30;;;2.00;99.90;;;;;;5031441;28;20256;-77
2023/01/22 07:52:32;;;;;;;14.67;11.20;;;2.10;99.90;;;;;;5031637;28;20194;-77
2023/01/22 07:54:58;;;;;;;14.30;11.30;;;2.10;99.90;;;;;;5031248;28;20433;-76
2023/01/22 07:57:23;;;;;;;15.77;11.70;;;2.00;99.90;;;;;;5027772;28;20825;-78
2023/01/22 07:59:49;;;;;;;16.53;12.33;;;1.80;99.90;;;;;;5006551;28;20257;-77
2023/01/22 08:02:15;;;;;;;14.43;10.90;;;1.90;99.90;;;;;;5013389;28;20178;-77
2023/01/22 08:04:41;;;;;;;14.57;11.17;;;2.00;99.90;;;;;;5029774;28;20241;-77
2023/01/22 08:07:16;;;;;;;16.63;11.90;;;1.70;99.90;;;;;;5030041;28;20171;-77
2023/01/22 08:09:42;;;;;;;15.30;10.80;;;2.00;99.90;;;;;;5029675;28;20842;-78
2023/01/22 08:12:08;;;;;;;16.77;11.17;;;1.80;99.90;;;;;;5005371;28;20410;-77
2023/01/22 08:14:34;;;;;;;15.50;11.10;;;1.80;99.90;;;;;;5017713;28;20563;-77
2023/01/22 08:16:59;;;;;;;17.67;12.00;;;2.10;99.90;;;;;;5034842;28;20460;-76
2023/01/22 08:19:28;;;;;;;13.50;11.00;;;1.90;99.90;;;;;;5029838;28;20199;-79
2023/01/22 08:21:54;;;;;;;14.43;10.07;;;1.90;99.90;;;;;;5045595;28;20205;-78
2023/01/22 08:24:20;;;;;;;12.93;10.40;;;1.90;99.90;;;;;;5008230;28;20460;-77
2023/01/22 08:26:46;;;;;;;16.07;10.70;;;2.10;99.90;;;;;;5008563;28;20441;-79
2023/01/22 08:29:12;;;;;;;15.03;11.07;;;2.00;99.90;;;;;;5037157;28;20667;-78
2023/01/22 08:31:38;;;;;;;14.30;11.00;;;2.10;99.90;;;;;;5040937;28;20802;-78
2023/01/22 08:34:04;;;;;;;13.53;10.83;;;2.10;99.90;;;;;;4993480;28;20606;-77
2023/01/22 08:36:29;;;;;;;14.07;11.10;;;2.10;99.90;;;;;;5013067;28;20256;-78
2023/01/22 08:38:55;;;;;;;14.80;11.07;;;2.10;99.90;;;;;;5040661;28;20512;-78
2023/01/22 08:41:21;;;;;;;17.60;10.43;;;1.90;99.90;;;;;;5023854;28;20605;-77
2023/01/22 08:43:47;;;;;;;14.10;10.73;;;1.80;99.90;;;;;;5033487;28;20229;-77
2023/01/22 08:46:12;;;;;;;17.50;11.10;;;1.70;99.90;;;;;;5026424;28;20454;-78
2023/01/22 08:48:38;;;;;;;13.83;10.37;;;2.00;99.90;;;;;;5025209;28;20304;-78
2023/01/22 08:51:04;;;;;;;13.40;10.93;;;1.90;99.90;;;;;;5013964;28;20206;-78
2023/01/22 08:53:30;;;;;;;13.70;10.80;;;2.00;99.90;;;;;;5018971;28;20799;-77
2023/01/22 08:55:55;;;;;;;15.20;11.23;;;1.80;99.90;;;;;;5040456;28;20233;-79
2023/01/22 08:58:24;;;;;;;14.10;11.33;;;2.10;99.90;;;;;;5029520;28;20232;-78
2023/01/22 09:00:50;;;;;;;13.67;11.47;;;2.20;99.90;;;;;;5035480;28;20226;-78
2023/01/22 09:03:15;;;;;;;13.13;10.40;;;2.20;99.90;;;;;;5028436;28;20514;-78
2023/01/22 09:05:41;;;;;;;14.67;10.93;;;2.30;99.90;;;;;;4996999;28;20453;-78
2023/01/22 09:08:07;;;;;;;14.07;10.60;;;2.30;99.90;;;;;;5017036;28;20226;-78
2023/01/22 09:10:33;;;;;;;13.13;10.10;;;2.30;99.90;;;;;;5026747;28;20441;-78
2023/01/22 09:12:59;;;;;;;14.80;10.17;;;2.30;99.90;;;;;;5024822;28;20487;-76
2023/01/22 09:15:25;;;;;;;15.90;11.27;;;2.10;99.90;;;;;;5006377;28;20253;-78
2023/01/22 09:17:51;;;;;;;15.27;10.80;;;2.40;99.90;;;;;;5028179;28;20460;-77
2023/01/22 09:20:17;;;;;;;13.97;11.70;;;2.50;99.90;;;;;;5010174;28;20210;-77
2023/01/22 09:22:46;;;;;;;14.90;10.77;;;2.30;99.90;;;;;;5032268;28;20221;-77
2023/01/22 09:25:12;;;;;;;14.20;10.53;;;2.30;99.90;;;;;;5007748;28;20188;-77
2023/01/22 09:27:38;;;;;;;15.27;10.57;;;2.40;99.90;;;;;;5006721;28;20401;-78
2023/01/22 09:30:04;;;;;;;13.83;10.80;;;2.50;99.90;;;;;;5033953;28;20413;-77
2023/01/22 09:32:30;;;;;;;14.20;10.70;;;2.50;99.90;;;;;;5008291;28;20195;-77
2023/01/22 09:34:55;;;;;;;15.20;11.90;;;2.40;99.90;;;;;;5021768;28;20449;-78
2023/01/22 09:37:21;;;;;;;16.33;12.27;;;2.50;99.90;;;;;;5007769;28;20425;-78
2023/01/22 09:39:50;;;;;;;15.50;12.00;;;2.50;99.90;;;;;;5025197;28;20240;-77
2023/01/22 09:42:36;;;;;;;13.80;11.47;;;2.40;99.90;;;;;;5031041;28;20914;-78
2023/01/22 09:45:06;;;;;;;13.97;11.10;;;2.40;99.90;;;;;;5012107;28;20424;-78
2023/01/22 09:47:39;;;;;;;14.17;11.70;;;2.40;99.90;;;;;;5019236;28;20433;-78
2023/01/22 09:50:23;;;;;;;16.90;12.37;;;2.60;99.90;;;;;;5009279;28;20438;-77
2023/01/22 09:52:51;;;;;;;15.50;12.03;;;2.50;99.90;;;;;;5008711;28;20452;-78
2023/01/22 09:55:21;;;;;;;14.60;12.00;;;2.40;99.90;;;;;;5039196;28;20434;-78
2023/01/22 09:57:53;;;;;;;15.93;12.53;;;2.30;99.90;;;;;;5000374;28;20432;-77
2023/01/22 10:00:30;;;;;;;15.50;12.13;;;2.40;99.90;;;;;;5035240;28;20737;-78
2023/01/22 10:03:09;;;;;;;16.27;11.33;;;2.50;99.90;;;;;;5030351;28;20756;-78
2023/01/22 10:05:38;;;;;;;18.90;13.30;;;2.50;99.90;;;;;;5009898;28;20964;-77
2023/01/22 10:08:17;;;;;;;16.60;12.37;;;2.40;99.90;;;;;;4999668;28;20416;-77
2023/01/22 10:10:43;;;;;;;17.20;11.40;;;2.30;99.90;;;;;;5011573;28;20928;-77
2023/01/22 10:13:32;;;;;;;18.83;12.83;;;2.30;99.90;;;;;;5009563;28;20439;-78
2023/01/22 10:15:58;;;;;;;16.73;12.53;;;2.40;99.90;;;;;;5019833;28;20182;-78
2023/01/22 10:18:27;;;;;;;15.77;11.80;;;2.50;99.90;;;;;;5009899;28;20445;-78
2023/01/22 10:20:54;;;;;;;18.87;11.67;;;2.50;99.90;;;;;;5015169;28;20548;-78
2023/01/22 10:23:24;;;;;;;15.80;11.40;;;2.60;99.90;;;;;;5044637;28;20468;-78
2023/01/22 10:25:55;;;;;;;15.47;12.37;;;2.60;99.90;;;;;;5015535;28;20425;-78
2023/01/22 10:28:25;;;;;;;16.43;12.40;;;2.60;99.90;;;;;;5046020;28;20913;-78
2023/01/22 10:30:56;;;;;;;16.13;11.90;;;2.40;99.90;;;;;;5049155;28;20991;-78
2023/01/22 10:33:24;;;;;;;13.90;11.07;;;2.60;99.90;;;;;;5031470;28;20494;-78
2023/01/22 10:35:52;;;;;;;15.50;11.73;;;2.60;99.90;;;;;;5040193;28;20451;-78
2023/01/22 10:38:28;;;;;;;16.27;12.80;;;2.50;99.90;;;;;;5029246;28;20431;-77
2023/01/22 10:40:57;;;;;;;15.27;11.00;;;2.60;99.90;;;;;;5039586;28;20959;-78
2023/01/22 10:43:34;;;;;;;15.97;11.07;;;2.80;99.90;;;;;;5002660;28;20453;-78
2023/01/22 10:46:22;;;;;;;19.60;11.93;;;2.50;99.90;;;;;;5041667;28;20449;-78
2023/01/22 10:49:02;;;;;;;16.63;11.77;;;2.50;99.90;;;;;;5032005;28;20451;-78
2023/01/22 10:51:36;;;;;;;18.20;13.03;;;2.60;99.90;;;;;;4999155;28;20420;-78
2023/01/22 10:54:02;;;;;;;16.03;12.03;;;2.80;99.90;;;;;;5012560;28;21141;-78
2023/01/22 10:56:39;;;;;;;15.10;12.10;;;2.50;99.90;;;;;;5019607;28;20471;-78
2023/01/22 10:59:22;;;;;;;14.83;11.10;;;2.60;99.90;;;;;;5027275;28;20500;-78
2023/01/22 11:01:55;;;;;;;17.13;12.00;;;2.60;99.90;;;;;;5040081;28;20470;-77
2023/01/22 11:04:27;;;;;;;17.63;12.50;;;2.60;99.90;;;;;;5010134;28;20848;-78
2023/01/22 11:07:05;;;;;;;18.00;11.30;;;2.70;99.90;;;;;;5025365;28;20443;-78
2023/01/22 11:09:37;;;;;;;16.23;12.07;;;2.90;99.90;;;;;;5003368;28;20426;-78
2023/01/22 11:12:06;;;;;;;17.53;12.00;;;2.70;99.90;;;;;;5043192;28;20421;-77
2023/01/22 11:14:34;;;;;;;16.20;12.67;;;2.80;99.90;;;;;;5022879;28;20468;-78
2023/01/22 11:17:23;;;;;;;15.20;12.20;;;2.70;99.90;;;;;;5023751;28;20437;-77
2023/01/22 11:19:59;;;;;;;16.13;11.97;;;2.80;99.90;;;;;;5011482;28;20511;-79
2023/01/22 11:22:36;;;;;;;14.67;11.20;;;2.80;99.90;;;;;;5031318;28;20412;-79
2023/01/22 11:25:02;;;;;;;17.20;12.87;;;2.80;99.90;;;;;;5033847;28;20482;-79
2023/01/22 11:27:48;;;;;;;17.10;12.17;;;2.60;99.90;;;;;;5014156;28;20418;-78
2023/01/22 11:30:35;;;;;;;18.07;12.20;;;2.70;99.90;;;;;;5020486;28;20443;-78
2023/01/22 11:33:03;;;;;;;19.50;13.43;;;2.90;99.90;;;;;;5032741;28;20411;-79
2023/01/22 11:35:56;;;;;;;15.60;12.07;;;2.70;99.90;;;;;;5048296;28;20448;-78
2023/01/22 11:38:34;;;;;;;19.60;12.93;;;2.60;99.90;;;;;;5029631;28;20416;-78
2023/01/22 11:41:02;;;;;;;16.60;12.23;;;2.70;99.90;;;;;;5040807;28;20498;-78
2023/01/22 11:43:54;;;;;;;15.70;11.50;;;2.60;99.90;;;;;;5035543;28;20456;-78
2023/01/22 11:46:20;;;;;;;16.60;11.77;;;2.90;99.90;;;;;;5038625;28;20414;-79
2023/01/22 11:49:06;;;;;;;16.37;11.77;;;2.90;99.90;;;;;;5036165;28;20412;-78
2023/01/22 11:51:57;;;;;;;15.17;11.43;;;2.70;99.90;;;;;;5009675;28;20420;-78
2023/01/22 11:54:57;;;;;;;16.93;11.80;;;2.80;99.90;;;;;;5044898;28;20436;-78
2023/01/22 11:57:31;;;;;;;18.23;12.77;;;2.80;99.90;;;;;;5047450;28;20492;-78
2023/01/22 12:00:09;;;;;;;16.20;12.00;;;2.80;99.90;;;;;;5026438;28;20445;-78
2023/01/22 12:03:12;;;;;;;16.50;12.70;;;2.70;99.90;;;;;;5046003;28;20455;-78
2023/01/22 12:06:11;;;;;;;15.23;11.13;;;2.80;99.90;;;;;;5044747;28;20436;-78
2023/01/22 12:08:50;;;;;;;18.03;12.53;;;2.80;99.90;;;;;;5051959;28;20613;-77
2023/01/22 12:11:42;;;;;;;18.17;13.90;;;2.70;99.90;;;;;;5036001;28;20409;-78
2023/01/22 12:14:46;;;;;;;17.70;12.10;;;2.80;99.90;;;;;;5029482;28;20505;-78
2023/01/22 12:18:01;;;;;;;16.17;12.63;;;2.70;99.90;;;;;;5030266;28;20563;-78
2023/01/22 12:21:04;;;;;;;17.03;12.70;;;2.80;99.90;;;;;;5004579;28;20619;-78
2023/01/22 12:23:50;;;;;;;19.67;13.30;;;2.80;99.90;;;;;;4998561;28;20432;-78
2023/01/22 12:26:26;;;;;;;20.60;14.57;;;2.70;99.90;;;;;;5015110;28;20459;-78
2023/01/22 12:29:02;;;;;;;21.00;14.40;;;2.80;99.90;;;;;;5014890;28;20413;-78
2023/01/22 12:31:50;;;;;;;17.33;12.73;;;2.70;99.90;;;;;;5014548;28;20412;-78
2023/01/22 12:34:31;;;;;;;20.40;13.63;;;2.90;99.90;;;;;;4998302;28;20487;-79
2023/01/22 12:36:58;;;;;;;17.23;13.30;;;3.00;99.90;;;;;;5032807;28;20408;-78
2023/01/22 12:39:35;;;;;;;14.87;11.20;;;2.70;99.90;;;;;;5026855;28;20926;-78
2023/01/22 12:42:19;;;;;;;18.80;13.60;;;2.70;99.90;;;;;;5014703;28;20424;-78
2023/01/22 12:44:59;;;;;;;18.67;13.30;;;2.80;99.90;;;;;;5014776;28;20429;-79
2023/01/22 12:47:37;;;;;;;18.90;13.33;;;2.70;99.90;;;;;;5032779;28;20405;-79
2023/01/22 12:50:14;;;;;;;17.07;12.63;;;2.90;99.90;;;;;;5014596;28;20885;-77
2023/01/22 12:52:41;;;;;;;17.80;13.10;;;2.90;99.90;;;;;;5032080;28;20435;-79
2023/01/22 12:55:29;;;;;;;18.20;12.07;;;2.70;99.90;;;;;;5014062;28;20463;-78